Time;durP1;ratioP1;P1;durP2;ratioP2;P2;SDS_P1;SDS_P2;PMS_P1;PMS_P2;Temp;Humidity;BMP_temperature;BMP_pressure;BME280_temperature;BME280_humidity;BME280_pressure;Samples;Min_cycle;Max_cycle;Signal;HPM_P1;HPM_P2
2023/07/17 00:00:30;;;;;;;;;;;16.40;99.90;;;;;;5111725;28;19924;-78
2023/07/17 00:02:55;;;;;;;;;;;16.40;99.90;;;;;;5111387;28;19920;-80
2023/07/17 00:05:22;;;;;;;;;;;16.40;99.90;;;;;;5111411;28;19924;-78
2023/07/17 00:07:48;;;;;;;;;;;16.40;99.90;;;;;;5096748;28;19955;-82
2023/07/17 00:10:19;;;;;;;;;;;16.30;99.90;;;;;;5112690;28;19993;-83
2023/07/17 00:12:45;;;;;;;;;;;16.30;99.90;;;;;;5074450;28;19928;-82
2023/07/17 00:15:10;;;;;;;;;;;16.30;99.90;;;;;;5073884;28;19974;-83
2023/07/17 00:17:36;;;;;;;;;;;16.30;99.90;;;;;;5090918;28;20010;-80
2023/07/17 00:20:05;;;;;;;;;;;16.30;99.90;;;;;;5091737;28;19924;-82
2023/07/17 00:22:36;;;;;;;;;;;16.20;99.90;;;;;;5090680;28;19928;-83
2023/07/17 00:25:04;;;;;;;;;;;16.20;99.90;;;;;;5090730;28;19924;-83
2023/07/17 00:27:30;;;;;;;;;;;16.30;99.90;;;;;;5090905;28;19974;-85
2023/07/17 00:29:55;;;;;;;;;;;16.30;99.90;;;;;;5091266;28;19966;-79
2023/07/17 00:32:21;;;;;;;;;;;16.40;99.90;;;;;;5090534;28;20420;-82
2023/07/17 00:34:47;;;;;;;;;;;16.50;99.90;;;;;;5090518;28;19924;-81
2023/07/17 00:37:12;;;;;;;;;;;16.50;99.90;;;;;;5091107;28;19927;-78
2023/07/17 00:39:38;;;;;;;;;;;16.50;99.90;;;;;;5092760;28;19963;-85
2023/07/17 00:42:04;;;;;;;;;;;16.50;99.90;;;;;;5094506;28;19928;-78
2023/07/17 00:44:30;;;;;;;;;;;16.50;99.90;;;;;;5092884;28;20389;-85
2023/07/17 00:46:56;;;;;;;;;;;16.50;99.90;;;;;;5098026;28;20006;-76
2023/07/17 00:49:23;;;;;;;;;;;16.50;99.90;;;;;;5114071;28;19920;-83
2023/07/17 00:51:49;;;;;;;;;;;16.40;99.90;;;;;;5114672;28;20011;-77
2023/07/17 00:54:18;;;;;;;;;;;16.40;99.90;;;;;;5114843;28;19957;-79
2023/07/17 00:56:49;;;;;;;;;;;16.40;99.90;;;;;;5115604;28;20311;-81
2023/07/17 00:59:15;;;;;;;;;;;16.30;99.90;;;;;;5097760;28;19923;-82
2023/07/17 01:01:41;;;;;;;;;;;16.20;99.90;;;;;;5114206;28;19976;-79
2023/07/17 01:04:07;;;;;;;;;;;16.10;99.90;;;;;;5097057;28;19928;-81
2023/07/17 01:06:38;;;;;;;;;;;16.10;99.90;;;;;;5114308;28;19982;-82
2023/07/17 01:09:04;;;;;;;;;;;16.00;99.90;;;;;;5097124;28;19920;-84
2023/07/17 01:11:30;;;;;;;;;;;16.00;99.90;;;;;;5113815;28;20010;-79
2023/07/17 01:13:55;;;;;;;;;;;16.00;99.90;;;;;;5096961;28;19974;-80
2023/07/17 01:16:21;;;;;;;;;;;15.80;99.90;;;;;;5113807;28;19977;-85
2023/07/17 01:18:47;;;;;;;;;;;15.80;99.90;;;;;;5114043;28;19966;-79
2023/07/17 01:21:14;;;;;;;;;;;15.70;99.90;;;;;;5114241;28;19923;-78
2023/07/17 01:23:46;;;;;;;;;;;15.70;99.90;;;;;;5114130;28;20279;-83
2023/07/17 01:26:15;;;;;;;;;;;15.60;99.90;;;;;;5114284;28;19923;-79
2023/07/17 01:28:42;;;;;;;;;;;15.50;99.90;;;;;;5113749;28;20035;-82
2023/07/17 01:31:08;;;;;;;;;;;15.50;99.90;;;;;;5096794;28;19923;-80
2023/07/17 01:33:33;;;;;;;;;;;15.40;99.90;;;;;;5113317;28;20407;-81
2023/07/17 01:35:59;;;;;;;;;;;15.40;99.90;;;;;;5096546;28;19924;-81
2023/07/17 01:38:26;;;;;;;;;;;15.30;99.90;;;;;;5096708;28;19927;-82
2023/07/17 01:40:53;;;;;;;;;;;15.30;99.90;;;;;;5113274;28;19924;-80
2023/07/17 01:43:19;;;;;;;;;;;15.20;99.90;;;;;;5096440;28;19939;-83
2023/07/17 01:45:44;;;;;;;;;;;15.20;99.90;;;;;;5079580;28;19962;-85
2023/07/17 01:48:10;;;;;;;;;;;15.20;99.90;;;;;;5096804;28;19920;-80
2023/07/17 01:50:41;;;;;;;;;;;15.20;99.90;;;;;;5096827;28;20474;-77
2023/07/17 01:53:07;;;;;;;;;;;15.20;99.90;;;;;;5113665;28;20010;-82
2023/07/17 01:55:33;;;;;;;;;;;15.20;99.90;;;;;;5096184;28;20014;-80
2023/07/17 01:57:58;;;;;;;;;;;15.20;99.90;;;;;;5113043;28;20552;-78
2023/07/17 02:00:24;;;;;;;;;;;15.20;99.90;;;;;;5095983;28;19931;-78
2023/07/17 02:02:50;;;;;;;;;;;15.10;99.90;;;;;;5113483;28;19924;-79
2023/07/17 02:05:16;;;;;;;;;;;15.10;99.90;;;;;;5096651;28;19923;-82
2023/07/17 02:07:41;;;;;;;;;;;15.20;99.90;;;;;;5082183;28;19920;-75
2023/07/17 02:10:07;;;;;;;;;;;15.10;99.90;;;;;;5083324;28;20023;-76
2023/07/17 02:12:33;;;;;;;;;;;15.10;99.90;;;;;;5097253;28;19919;-80
2023/07/17 02:14:59;;;;;;;;;;;15.10;99.90;;;;;;5113666;28;20313;-80
2023/07/17 02:17:25;;;;;;;;;;;15.10;99.90;;;;;;5095913;28;19920;-76
2023/07/17 02:19:51;;;;;;;;;;;15.00;99.90;;;;;;5112928;28;20388;-78
2023/07/17 02:22:16;;;;;;;;;;;15.00;99.90;;;;;;5078838;28;19981;-78
2023/07/17 02:24:42;;;;;;;;;;;15.00;99.90;;;;;;5112546;28;19927;-79
2023/07/17 02:27:08;;;;;;;;;;;15.00;99.90;;;;;;5112969;28;19924;-85
2023/07/17 02:29:34;;;;;;;;;;;15.00;99.90;;;;;;5095487;28;19920;-79
2023/07/17 02:31:59;;;;;;;;;;;15.00;99.90;;;;;;5095734;28;19924;-79
2023/07/17 02:34:25;;;;;;;;;;;15.00;99.90;;;;;;5112650;28;19920;-81
2023/07/17 02:36:52;;;;;;;;;;;14.90;99.90;;;;;;5081203;28;19997;-82
2023/07/17 02:39:18;;;;;;;;;;;14.90;99.90;;;;;;5091797;28;19943;-80
2023/07/17 02:41:44;;;;;;;;;;;14.90;99.90;;;;;;5092378;28;19947;-80
2023/07/17 02:44:09;;;;;;;;;;;14.80;99.90;;;;;;5074815;28;19934;-84
2023/07/17 02:46:36;;;;;;;;;;;14.80;99.90;;;;;;5075147;28;19920;-80
2023/07/17 02:49:02;;;;;;;;;;;14.80;99.90;;;;;;5092346;28;20269;-80
2023/07/17 02:51:28;;;;;;;;;;;14.70;99.90;;;;;;5091771;28;19931;-82
2023/07/17 02:53:53;;;;;;;;;;;14.70;99.90;;;;;;5074827;28;19924;-83
2023/07/17 02:56:19;;;;;;;;;;;14.70;99.90;;;;;;5075206;28;20380;-82
2023/07/17 02:58:48;;;;;;;;;;;14.70;99.90;;;;;;5074859;28;19924;-80
2023/07/17 03:01:14;;;;;;;;;;;14.70;99.90;;;;;;5074534;28;20014;-81
2023/07/17 03:03:40;;;;;;;;;;;14.70;99.90;;;;;;5073964;28;20022;-82
2023/07/17 03:06:06;;;;;;;;;;;14.70;99.90;;;;;;5074583;28;20007;-79
2023/07/17 03:08:33;;;;;;;;;;;14.70;99.90;;;;;;5091764;28;19928;-78
2023/07/17 03:11:01;;;;;;;;;;;14.70;99.90;;;;;;5076063;28;19950;-80
2023/07/17 03:13:27;;;;;;;;;;;14.70;99.90;;;;;;5092141;28;19927;-79
2023/07/17 03:15:56;;;;;;;;;;;14.60;99.90;;;;;;5091453;28;19924;-80
2023/07/17 03:18:21;;;;;;;;;;;14.70;99.90;;;;;;5074898;28;20013;-77
2023/07/17 03:20:47;;;;;;;;;;;14.60;99.90;;;;;;5074580;28;19963;-79
2023/07/17 03:23:12;;;;;;;;;;;14.60;99.90;;;;;;5090958;28;19925;-81
2023/07/17 03:25:40;;;;;;;;;;;14.60;99.90;;;;;;5056785;28;19924;-83
2023/07/17 03:28:09;;;;;;;;;;;14.60;99.90;;;;;;5092331;28;19931;-77
2023/07/17 03:30:35;;;;;;;;;;;14.60;99.90;;;;;;5090520;28;19924;-82
2023/07/17 03:33:01;;;;;;;;;;;14.60;99.90;;;;;;5086614;28;19924;-81
2023/07/17 03:35:26;;;;;;;;;;;14.60;99.90;;;;;;5093683;28;20014;-76
2023/07/17 03:37:52;;;;;;;;;;;14.50;99.90;;;;;;5109831;28;19967;-82
2023/07/17 03:40:17;;;;;;;;;;;14.50;99.90;;;;;;5111426;28;20009;-84
2023/07/17 03:42:43;;;;;;;;;;;14.50;99.90;;;;;;5094615;28;20007;-80
2023/07/17 03:45:09;;;;;;;;;;;14.50;99.90;;;;;;5094676;28;20120;-82
2023/07/17 03:47:34;;;;;;;;;;;14.40;99.90;;;;;;5110959;28;19923;-81
2023/07/17 03:50:00;;;;;;;;;;;14.40;99.90;;;;;;5111134;28;19927;-79
2023/07/17 03:52:25;;;;;;;;;;;14.40;99.90;;;;;;5077569;28;19920;-81
2023/07/17 03:54:51;;;;;;;;;;;14.40;99.90;;;;;;5112031;28;20242;-82
2023/07/17 03:57:16;;;;;;;;;;;14.40;99.90;;;;;;5111333;28;19920;-78
2023/07/17 03:59:46;;;;;;;;;;;14.40;99.90;;;;;;5111042;28;20002;-82
2023/07/17 04:02:11;;;;;;;;;;;14.40;99.90;;;;;;5094168;28;19930;-85
2023/07/17 04:04:37;;;;;;;;;;;14.40;99.90;;;;;;5093695;28;20287;-83
2023/07/17 04:07:03;;;;;;;;;;;14.40;99.90;;;;;;5110967;28;19920;-80
2023/07/17 04:09:28;;;;;;;;;;;14.40;99.90;;;;;;5111493;28;19930;-81
2023/07/17 04:11:54;;;;;;;;;;;14.40;99.90;;;;;;5076839;28;19966;-81
2023/07/17 04:14:19;;;;;;;;;;;14.40;99.90;;;;;;5096312;28;19946;-83
2023/07/17 04:16:45;;;;;;;;;;;14.40;99.90;;;;;;5098135;28;20284;-80
2023/07/17 04:19:10;;;;;;;;;;;14.40;99.90;;;;;;5082007;28;19924;-79
2023/07/17 04:21:42;;;;;;;;;;;14.40;99.90;;;;;;5114768;28;20430;-82
2023/07/17 04:24:07;;;;;;;;;;;14.40;99.90;;;;;;5114936;28;19919;-81
2023/07/17 04:26:33;;;;;;;;;;;14.40;99.90;;;;;;5115277;28;19923;-80
2023/07/17 04:28:59;;;;;;;;;;;14.50;99.90;;;;;;5103793;28;19987;-78
2023/07/17 04:31:24;;;;;;;;;;;14.50;99.90;;;;;;5094195;28;20373;-78
2023/07/17 04:33:50;;;;;;;;;;;14.60;99.90;;;;;;5095484;28;19920;-81
2023/07/17 04:36:15;;;;;;;;;;;14.60;99.90;;;;;;5077494;28;20364;-83
2023/07/17 04:38:41;;;;;;;;;;;14.60;99.90;;;;;;5094816;28;19920;-75
2023/07/17 04:41:06;;;;;;;;;;;14.70;99.90;;;;;;5079129;28;19928;-78
2023/07/17 04:43:38;;;;;;;;;;;14.70;99.90;;;;;;5093800;28;19931;-81
2023/07/17 04:46:04;;;;;;;;;;;14.80;99.90;;;;;;5077413;28;19938;-77
2023/07/17 04:48:29;;;;;;;;;;;14.80;99.90;;;;;;5078114;28;19975;-80
2023/07/17 04:50:55;;;;;;;;;;;14.90;99.90;;;;;;5093704;28;19959;-80
2023/07/17 04:53:21;;;;;;;;;;;14.90;99.90;;;;;;5077360;28;19966;-77
2023/07/17 04:55:48;;;;;;;;;;;15.00;99.90;;;;;;5076730;28;20424;-80
2023/07/17 04:58:14;;;;;;;;;;;15.00;99.90;;;;;;5094189;28;20303;-78
2023/07/17 05:00:42;;;;;;;;;;;15.00;99.90;;;;;;5060247;28;19920;-83
2023/07/17 05:03:09;;;;;;;;;;;15.10;99.90;;;;;;5077236;28;20299;-79
2023/07/17 05:05:35;;;;;;;;;;;15.20;99.90;;;;;;5097437;28;20406;-82
2023/07/17 05:08:01;;;;;;;;;;;15.20;99.90;;;;;;5094466;28;19919;-81
2023/07/17 05:10:26;;;;;;;;;;;15.30;99.90;;;;;;5094379;28;19967;-83
2023/07/17 05:12:52;;;;;;;;;;;15.30;99.90;;;;;;5093449;28;20277;-83
2023/07/17 05:15:18;;;;;;;;;;;15.30;99.90;;;;;;5093857;28;20032;-81
2023/07/17 05:17:44;;;;;;;;;;;15.40;99.90;;;;;;5060125;28;19924;-83
2023/07/17 05:20:10;;;;;;;;;;;15.50;99.90;;;;;;5077421;28;19967;-80
2023/07/17 05:22:35;;;;;;;;;;;15.50;99.90;;;;;;5077169;28;19970;-85
2023/07/17 05:25:05;;;;;;;;;;;15.60;99.90;;;;;;5103581;28;20308;-80
2023/07/17 05:27:30;;;;;;;;;;;15.60;99.90;;;;;;5097382;28;19930;-79
2023/07/17 05:29:56;;;;;;;;;;;15.60;99.90;;;;;;5096061;28;19919;-83
2023/07/17 05:32:22;;;;;;;;;;;15.70;99.90;;;;;;5097310;28;19923;-81
2023/07/17 05:34:49;;;;;;;;;;;15.80;99.90;;;;;;5113485;28;20069;-84
2023/07/17 05:37:18;;;;;;;;;;;15.80;99.90;;;;;;5114280;28;20372;-81
2023/07/17 05:39:44;;;;;;;;;;;15.90;99.90;;;;;;5080128;28;19968;-84
2023/07/17 05:42:10;;;;;;;;;;;15.90;99.90;;;;;;5095985;28;19931;-82
2023/07/17 05:44:35;;;;;;;;;;;16.00;99.90;;;;;;5114002;28;19923;-80
2023/07/17 05:47:01;;;;;;;;;;;16.00;99.90;;;;;;5113793;28;19931;-76
2023/07/17 05:49:26;;;;;;;;;;;16.10;99.90;;;;;;5096532;28;19923;-78
2023/07/17 05:51:52;;;;;;;;;;;16.20;99.90;;;;;;5113698;28;19920;-82
2023/07/17 05:54:17;;;;;;;;;;;16.30;99.90;;;;;;5079503;28;19928;-80
2023/07/17 05:56:43;;;;;;;;;;;16.30;99.90;;;;;;5113952;28;19919;-77
2023/07/17 05:59:09;;;;;;;;;;;16.30;99.90;;;;;;5099788;28;20687;-79
2023/07/17 06:01:34;;;;;;;;;;;16.30;99.90;;;;;;5095851;28;19931;-78
2023/07/17 06:04:00;;;;;;;;;;;16.40;99.90;;;;;;5113327;28;19919;-79
2023/07/17 06:06:26;;;;;;;;;;;16.50;99.90;;;;;;5096104;28;19923;-79
2023/07/17 06:08:51;;;;;;;;;;;16.60;99.90;;;;;;5079625;28;20481;-78
2023/07/17 06:11:17;;;;;;;;;;;16.70;99.90;;;;;;5096465;28;20717;-78
2023/07/17 06:13:44;;;;;;;;;;;16.80;99.90;;;;;;5114716;28;19972;-83
2023/07/17 06:16:10;;;;;;;;;;;16.90;99.90;;;;;;5096704;28;19924;-80
2023/07/17 06:18:36;;;;;;;;;;;17.10;99.90;;;;;;5079150;28;19973;-82
2023/07/17 06:21:01;;;;;;;;;;;17.30;99.90;;;;;;5112088;28;20055;-80
2023/07/17 06:23:30;;;;;;;;;;;17.50;99.90;;;;;;5114180;28;19920;-77
2023/07/17 06:25:55;;;;;;;;;;;17.70;99.90;;;;;;5095733;28;20288;-80
2023/07/17 06:28:21;;;;;;;;;;;17.70;99.90;;;;;;5113023;28;20051;-79
2023/07/17 06:30:47;;;;;;;;;;;17.70;99.90;;;;;;5095531;28;19926;-81
2023/07/17 06:33:13;;;;;;;;;;;17.70;99.90;;;;;;5112433;28;20315;-82
2023/07/17 06:35:39;;;;;;;;;;;17.70;99.90;;;;;;5095445;28;19934;-82
2023/07/17 06:38:04;;;;;;;;;;;17.70;99.90;;;;;;5078718;28;19923;-80
2023/07/17 06:40:30;;;;;;;;;;;17.80;99.90;;;;;;5078829;28;20006;-77
2023/07/17 06:42:56;;;;;;;;;;;18.00;99.90;;;;;;5117459;28;19924;-83
2023/07/17 06:45:22;;;;;;;;;;;18.10;99.90;;;;;;5112803;28;19923;-81
2023/07/17 06:47:48;;;;;;;;;;;18.30;99.90;;;;;;5095857;28;19919;-85
2023/07/17 06:50:14;;;;;;;;;;;18.40;99.90;;;;;;5103541;28;19920;-83
2023/07/17 06:52:41;;;;;;;;;;;18.60;99.90;;;;;;5095826;28;20400;-77
2023/07/17 06:55:10;;;;;;;;;;;18.70;99.90;;;;;;5094241;28;19931;-82
2023/07/17 06:57:36;;;;;;;;;;;18.80;99.90;;;;;;5076136;28;20007;-79
2023/07/17 07:00:05;;;;;;;;;;;18.70;99.90;;;;;;5074998;28;19924;-80
2023/07/17 07:02:31;;;;;;;;;;;18.60;99.90;;;;;;5075919;28;19924;-82
2023/07/17 07:04:57;;;;;;;;;;;18.60;99.90;;;;;;5091389;28;20340;-79
2023/07/17 07:07:22;;;;;;;;;;;18.70;99.90;;;;;;5092249;28;19924;-76
2023/07/17 07:09:48;;;;;;;;;;;18.80;99.90;;;;;;5091571;28;19970;-77
2023/07/17 07:12:14;;;;;;;;;;;18.80;99.90;;;;;;5091509;28;20006;-79
2023/07/17 07:14:40;;;;;;;;;;;18.80;99.90;;;;;;5092595;28;19942;-80
2023/07/17 07:17:06;;;;;;;;;;;18.70;99.90;;;;;;5091618;28;19942;-81
2023/07/17 07:19:31;;;;;;;;;;;18.50;99.90;;;;;;5091925;28;20311;-76
2023/07/17 07:21:57;;;;;;;;;;;18.40;99.90;;;;;;5092379;28;19931;-82
2023/07/17 07:24:22;;;;;;;;;;;18.30;99.90;;;;;;5091577;28;19924;-83
2023/07/17 07:26:48;;;;;;;;;;;18.30;99.90;;;;;;5091611;28;19928;-75
2023/07/17 07:29:14;;;;;;;;;;;18.30;99.90;;;;;;5090931;28;20628;-82
2023/07/17 07:31:40;;;;;;;;;;;18.40;99.90;;;;;;5074560;28;20015;-81
2023/07/17 07:34:05;;;;;;;;;;;18.40;99.90;;;;;;5074308;28;20377;-80
2023/07/17 07:36:31;;;;;;;;;;;18.30;99.90;;;;;;5074698;28;19920;-79
2023/07/17 07:38:57;;;;;;;;;;;18.10;99.90;;;;;;5091309;28;19927;-80
2023/07/17 07:41:22;;;;;;;;;;;17.80;99.90;;;;;;5057641;28;20581;-82
2023/07/17 07:43:48;;;;;;;;;;;17.60;99.90;;;;;;5091416;28;20404;-80
2023/07/17 07:46:13;;;;;;;;;;;17.40;99.90;;;;;;5074197;28;19931;-81
2023/07/17 07:48:39;;;;;;;;;;;17.20;99.90;;;;;;5090385;28;19928;-75
2023/07/17 07:51:05;;;;;;;;;;;17.20;99.90;;;;;;5094319;28;20123;-78
2023/07/17 07:53:30;;;;;;;;;;;17.20;99.90;;;;;;5112026;28;19943;-79
2023/07/17 07:55:56;;;;;;;;;;;17.30;99.90;;;;;;5110964;28;19969;-81
2023/07/17 07:58:23;;;;;;;;;;;17.40;99.90;;;;;;5094555;28;19927;-82
2023/07/17 08:00:48;;;;;;;;;;;17.50;99.90;;;;;;5077140;28;19932;-79
2023/07/17 08:03:14;;;;;;;;;;;17.80;99.90;;;;;;5110799;28;19973;-80
2023/07/17 08:05:40;;;;;;;;;;;18.10;99.90;;;;;;5094708;28;19933;-82
2023/07/17 08:08:06;;;;;;;;;;;18.40;99.90;;;;;;5111057;28;19920;-81
2023/07/17 08:10:31;;;;;;;;;;;18.70;99.90;;;;;;5110979;28;20014;-81
2023/07/17 08:12:59;;;;;;;;;;;18.80;99.90;;;;;;5111013;28;19920;-83
2023/07/17 08:15:24;;;;;;;;;;;18.90;99.90;;;;;;5094203;28;19923;-83
2023/07/17 08:17:50;;;;;;;;;;;18.90;99.90;;;;;;5111089;28;20438;-78
2023/07/17 08:20:17;;;;;;;;;;;19.00;99.90;;;;;;5077709;28;19963;-80
2023/07/17 08:22:46;;;;;;;;;;;19.00;99.90;;;;;;5112144;28;20565;-81
2023/07/17 08:25:12;;;;;;;;;;;19.20;99.90;;;;;;5112140;28;19966;-79
2023/07/17 08:27:37;;;;;;;;;;;19.40;99.90;;;;;;5094843;28;19967;-82
2023/07/17 08:30:04;;;;;;;;;;;19.60;99.90;;;;;;5111441;28;19920;-82
2023/07/17 08:32:31;;;;;;;;;;;19.70;99.90;;;;;;5111238;28;19953;-81
2023/07/17 08:34:56;;;;;;;;;;;19.80;99.90;;;;;;5093948;28;19924;-82
2023/07/17 08:37:22;;;;;;;;;;;19.90;99.90;;;;;;5110786;28;19923;-84
2023/07/17 08:39:47;;;;;;;;;;;19.90;99.90;;;;;;5111079;28;19932;-83
2023/07/17 08:42:13;;;;;;;;;;;19.80;99.90;;;;;;5111010;28;19945;-80
2023/07/17 08:44:39;;;;;;;;;;;19.70;99.90;;;;;;5077321;28;20349;-83
2023/07/17 08:47:07;;;;;;;;;;;19.50;99.90;;;;;;5077118;28;19927;-78
2023/07/17 08:49:35;;;;;;;;;;;19.30;99.90;;;;;;5094140;28;19927;-80
2023/07/17 08:52:05;;;;;;;;;;;19.30;99.90;;;;;;5093913;28;19920;-83
2023/07/17 08:54:31;;;;;;;;;;;19.30;99.90;;;;;;5093556;28;20284;-77
2023/07/17 08:57:02;;;;;;;;;;;19.30;99.90;;;;;;5076953;28;19924;-79
2023/07/17 08:59:29;;;;;;;;;;;19.20;99.90;;;;;;5094104;28;19920;-80
2023/07/17 09:01:55;;;;;;;;;;;19.20;99.90;;;;;;5096466;28;19930;-78
2023/07/17 09:04:21;;;;;;;;;;;19.30;99.90;;;;;;5114272;28;19928;-80
2023/07/17 09:06:46;;;;;;;;;;;19.50;99.90;;;;;;5097506;28;19942;-80
2023/07/17 09:09:12;;;;;;;;;;;19.80;99.90;;;;;;5114186;28;19946;-78
2023/07/17 09:11:38;;;;;;;;;;;19.90;99.90;;;;;;5097211;28;19967;-79
2023/07/17 09:14:06;;;;;;;;;;;19.80;99.90;;;;;;5097526;28;19965;-81
2023/07/17 09:16:32;;;;;;;;;;;19.60;99.90;;;;;;5097174;28;20415;-79
2023/07/17 09:18:58;;;;;;;;;;;19.60;99.90;;;;;;5096983;28;19931;-84
2023/07/17 09:21:24;;;;;;;;;;;19.60;99.90;;;;;;5113299;28;19977;-84
2023/07/17 09:24:01;;;;;;;;;;;19.80;99.90;;;;;;5080256;28;19934;-85
2023/07/17 09:26:28;;;;;;;;;;;20.00;99.90;;;;;;5082939;28;19920;-80
2023/07/17 09:28:55;;;;;;;;;;;20.00;99.90;;;;;;5098709;28;19927;-81
2023/07/17 09:31:25;;;;;;;;;;;20.20;99.90;;;;;;5114504;28;19920;-78
2023/07/17 09:33:51;;;;;;;;;;;20.30;99.90;;;;;;5083469;28;19935;-81
2023/07/17 09:36:17;;;;;;;;;;;20.30;99.90;;;;;;5097945;28;20275;-81
2023/07/17 09:38:52;;;;;;;;;;;20.20;99.90;;;;;;5113408;28;20014;-83
2023/07/17 09:41:25;;;;;;;;;;;20.20;99.90;;;;;;5096315;28;19950;-84
2023/07/17 09:43:52;;;;;;;;;;;20.20;99.90;;;;;;5113059;28;19927;-79
2023/07/17 09:46:18;;;;;;;;;;;20.40;99.90;;;;;;5097032;28;20407;-82
2023/07/17 09:48:43;;;;;;;;;;;20.50;99.90;;;;;;5096895;28;19919;-83
2023/07/17 09:51:09;;;;;;;;;;;20.50;99.90;;;;;;5096779;28;19923;-80
2023/07/17 09:53:35;;;;;;;;;;;20.40;99.90;;;;;;5114508;28;19923;-79
2023/07/17 09:56:02;;;;;;;;;;;20.40;99.90;;;;;;5113376;28;20007;-79
2023/07/17 09:58:30;;;;;;;;;;;20.60;99.90;;;;;;5113358;28;19927;-82
2023/07/17 10:00:57;;;;;;;;;;;20.80;99.90;;;;;;5113690;28;19927;-84
2023/07/17 10:03:23;;;;;;;;;;;20.90;99.90;;;;;;5112687;28;19965;-81
2023/07/17 10:05:50;;;;;;;;;;;21.10;99.90;;;;;;5113874;28;20285;-79
2023/07/17 10:08:17;;;;;;;;;;;21.20;99.90;;;;;;5095348;28;20361;-78
2023/07/17 10:10:43;;;;;;;;;;;21.30;99.90;;;;;;5113177;28;20452;-83
2023/07/17 10:13:09;;;;;;;;;;;21.40;99.90;;;;;;5112234;28;19923;-84
2023/07/17 10:15:35;;;;;;;;;;;21.50;99.90;;;;;;5096636;28;19973;-84
2023/07/17 10:18:01;;;;;;;;;;;21.60;99.90;;;;;;5113791;28;19927;-79
2023/07/17 10:20:29;;;;;;;;;;;21.70;99.90;;;;;;5078527;28;20291;-79
2023/07/17 10:22:56;;;;;;;;;;;21.70;99.60;;;;;;5096157;28;19931;-77
2023/07/17 10:25:23;;;;;;;;;;;21.70;99.60;;;;;;5095910;28;19986;-78
2023/07/17 10:27:59;;;;;;;;;;;21.70;98.00;;;;;;5113797;28;20388;-84
2023/07/17 10:30:26;;;;;;;;;;;21.60;98.40;;;;;;5113269;28;19924;-82
2023/07/17 10:33:09;;;;;;;;;;;21.60;98.70;;;;;;5114200;28;19958;-82
2023/07/17 10:35:45;;;;;;;;;;;21.70;98.40;;;;;;5096490;28;19999;-81
2023/07/17 10:38:11;;;;;;;;;;;21.60;97.90;;;;;;5113555;28;19998;-81
2023/07/17 10:40:36;;;;;;;;;;;21.50;98.50;;;;;;5115291;28;19930;-83
2023/07/17 10:43:11;;;;;;;;;;;21.50;98.00;;;;;;5113062;28;20006;-81
2023/07/17 10:45:37;;;;;;;;;;;21.50;98.60;;;;;;5112781;28;19970;-83
2023/07/17 10:48:04;;;;;;;;;;;21.50;97.70;;;;;;5113025;28;20384;-82
2023/07/17 10:50:29;;;;;;;;;;;21.60;97.10;;;;;;5076251;28;19928;-82
2023/07/17 10:53:00;;;;;;;;;;;21.50;97.40;;;;;;5092123;28;20003;-79
2023/07/17 10:55:27;;;;;;;;;;;21.40;98.40;;;;;;5092127;28;19920;-79
2023/07/17 10:57:53;;;;;;;;;;;21.70;97.10;;;;;;5075895;28;19965;-80
2023/07/17 11:00:19;;;;;;;;;;;21.70;97.40;;;;;;5076097;28;19932;-79
2023/07/17 11:02:50;;;;;;;;;;;21.80;97.20;;;;;;5089893;28;19930;-80
2023/07/17 11:05:16;;;;;;;;;;;21.80;97.30;;;;;;5095727;28;20014;-81
2023/07/17 11:07:42;;;;;;;;;;;21.90;97.00;;;;;;5114082;28;19927;-83
2023/07/17 11:10:11;;;;;;;;;;;22.10;96.80;;;;;;5094740;28;19931;-77
2023/07/17 11:12:38;;;;;;;;;;;22.10;95.80;;;;;;5094891;28;19923;-86
2023/07/17 11:15:04;;;;;;;;;;;22.10;95.50;;;;;;5111914;28;20369;-82
2023/07/17 11:17:29;;;;;;;;;;;22.20;96.10;;;;;;5112648;28;19976;-83
2023/07/17 11:19:58;;;;;;;;;;;22.30;94.50;;;;;;5112781;28;19941;-83
2023/07/17 11:22:29;;;;;;;;;;;22.50;94.30;;;;;;5093998;28;19971;-82
2023/07/17 11:24:54;;;;;;;;;;;22.60;94.20;;;;;;5111132;28;20007;-84
2023/07/17 11:27:20;;;;;;;;;;;22.50;93.60;;;;;;5112612;28;20029;-83
2023/07/17 11:29:47;;;;;;;;;;;22.30;93.10;;;;;;5112188;28;19924;-80
2023/07/17 11:32:13;;;;;;;;;;;22.00;93.60;;;;;;5095265;28;20018;-79
2023/07/17 11:34:38;;;;;;;;;;;21.80;94.30;;;;;;5077408;28;20405;-79
2023/07/17 11:37:04;;;;;;;;;;;21.60;94.00;;;;;;5094759;28;19923;-82
2023/07/17 11:39:32;;;;;;;;;;;21.50;94.60;;;;;;5077477;28;20418;-81
2023/07/17 11:42:04;;;;;;;;;;;21.50;95.00;;;;;;5113446;28;20377;-81
2023/07/17 11:44:32;;;;;;;;;;;21.40;94.80;;;;;;5095121;28;21769;-77
2023/07/17 11:46:59;;;;;;;;;;;21.50;95.10;;;;;;5095079;28;19920;-79
2023/07/17 11:49:26;;;;;;;;;;;21.80;94.60;;;;;;5112178;28;19928;-82
2023/07/17 11:51:55;;;;;;;;;;;22.00;93.90;;;;;;5095355;28;19981;-85
2023/07/17 11:54:21;;;;;;;;;;;21.90;94.10;;;;;;5112440;28;19920;-84
2023/07/17 11:56:56;;;;;;;;;;;22.10;94.10;;;;;;5097207;28;19930;-82
2023/07/17 11:59:24;;;;;;;;;;;22.30;93.70;;;;;;5111349;28;20333;-81
2023/07/17 12:01:50;;;;;;;;;;;22.40;93.70;;;;;;5094255;28;19931;-80
2023/07/17 12:04:17;;;;;;;;;;;22.40;93.30;;;;;;5111792;28;20267;-78
2023/07/17 12:06:42;;;;;;;;;;;22.20;93.60;;;;;;5094242;28;19971;-81
2023/07/17 12:09:08;;;;;;;;;;;22.00;93.40;;;;;;5111554;28;19978;-80
2023/07/17 12:11:33;;;;;;;;;;;22.00;93.60;;;;;;5111288;28;20031;-79
2023/07/17 12:13:59;;;;;;;;;;;22.00;93.50;;;;;;5078236;28;20384;-76
2023/07/17 12:16:25;;;;;;;;;;;21.90;93.80;;;;;;5099801;28;20020;-79
2023/07/17 12:18:50;;;;;;;;;;;21.80;94.70;;;;;;5113563;28;20326;-76
2023/07/17 12:21:16;;;;;;;;;;;21.50;99.40;;;;;;5094782;28;19928;-75
2023/07/17 12:23:43;;;;;;;;;;;21.30;98.50;;;;;;5110765;28;20062;-83
2023/07/17 12:26:08;;;;;;;;;;;21.30;99.40;;;;;;5095616;28;19931;-85
2023/07/17 12:28:34;;;;;;;;;;;21.50;99.80;;;;;;5113303;28;19924;-79
2023/07/17 12:31:00;;;;;;;;;;;21.70;99.40;;;;;;5112392;28;20438;-82
2023/07/17 12:33:25;;;;;;;;;;;22.00;98.60;;;;;;5077718;28;19920;-77
2023/07/17 12:35:51;;;;;;;;;;;22.10;98.80;;;;;;5114028;28;19923;-79
2023/07/17 12:38:17;;;;;;;;;;;22.40;97.80;;;;;;5098334;28;19969;-79
2023/07/17 12:40:43;;;;;;;;;;;22.40;96.50;;;;;;5097517;28;20213;-79
2023/07/17 12:43:08;;;;;;;;;;;22.20;96.50;;;;;;5098134;28;19927;-80
2023/07/17 12:45:40;;;;;;;;;;;21.80;96.50;;;;;;5115121;28;19971;-80
2023/07/17 12:48:06;;;;;;;;;;;21.30;96.70;;;;;;5097760;28;19978;-76
2023/07/17 12:50:32;;;;;;;;;;;21.00;97.20;;;;;;5111442;28;19923;-77
2023/07/17 12:52:58;;;;;;;;;;;20.90;97.50;;;;;;5114553;28;20017;-78
2023/07/17 12:55:23;;;;;;;;;;;21.20;97.70;;;;;;5115616;28;19920;-83
2023/07/17 12:57:50;;;;;;;;;;;21.80;97.10;;;;;;5081502;28;19961;-79
2023/07/17 13:00:15;;;;;;;;;;;22.40;95.60;;;;;;5115101;28;19935;-83
2023/07/17 13:02:41;;;;;;;;;;;22.80;93.80;;;;;;5097714;28;19924;-78
2023/07/17 13:05:07;;;;;;;;;;;23.10;93.10;;;;;;5114824;28;20372;-81
2023/07/17 13:07:33;;;;;;;;;;;23.30;91.70;;;;;;5097428;28;19920;-77
2023/07/17 13:09:58;;;;;;;;;;;23.30;91.20;;;;;;5114401;28;19968;-78
2023/07/17 13:12:25;;;;;;;;;;;23.40;92.10;;;;;;5097643;28;19920;-85
2023/07/17 13:14:51;;;;;;;;;;;23.70;90.70;;;;;;5097858;28;20056;-82
2023/07/17 13:17:17;;;;;;;;;;;23.60;89.30;;;;;;5097380;28;20014;-80
2023/07/17 13:19:45;;;;;;;;;;;23.60;90.40;;;;;;5097323;28;19919;-78
2023/07/17 13:22:10;;;;;;;;;;;23.50;90.90;;;;;;5113690;28;20064;-82
2023/07/17 13:24:36;;;;;;;;;;;23.50;90.50;;;;;;5080183;28;20010;-80
2023/07/17 13:27:02;;;;;;;;;;;23.30;89.10;;;;;;5114059;28;20063;-79
2023/07/17 13:29:28;;;;;;;;;;;23.00;89.20;;;;;;5097280;28;19920;-78
2023/07/17 13:31:58;;;;;;;;;;;22.70;88.90;;;;;;5080736;28;20097;-80
2023/07/17 13:34:25;;;;;;;;;;;22.50;89.70;;;;;;5080655;28;19988;-79
2023/07/17 13:36:51;;;;;;;;;;;22.70;89.50;;;;;;5099014;28;19923;-82
2023/07/17 13:39:16;;;;;;;;;;;23.00;90.30;;;;;;5097303;28;19920;-81
2023/07/17 13:41:42;;;;;;;;;;;23.50;89.20;;;;;;5096403;28;19931;-81
2023/07/17 13:44:08;;;;;;;;;;;23.70;86.90;;;;;;5096870;28;19973;-80
2023/07/17 13:46:33;;;;;;;;;;;23.90;86.70;;;;;;5112369;28;20337;-83
2023/07/17 13:48:59;;;;;;;;;;;24.10;85.50;;;;;;5113611;28;19972;-82
2023/07/17 13:51:25;;;;;;;;;;;24.20;84.40;;;;;;5113235;28;20071;-84
2023/07/17 13:53:51;;;;;;;;;;;24.30;83.20;;;;;;5112968;28;19950;-75
2023/07/17 13:56:16;;;;;;;;;;;24.30;83.10;;;;;;5113703;28;19967;-81
2023/07/17 13:58:42;;;;;;;;;;;24.40;83.20;;;;;;5114242;28;19920;-79
2023/07/17 14:01:08;;;;;;;;;;;24.60;84.40;;;;;;5114476;28;19924;-81
2023/07/17 14:03:33;;;;;;;;;;;24.70;82.60;;;;;;5096304;28;19992;-82
2023/07/17 14:05:59;;;;;;;;;;;24.60;81.20;;;;;;5096333;28;19945;-77
2023/07/17 14:08:24;;;;;;;;;;;24.40;82.90;;;;;;5113129;28;19919;-83
2023/07/17 14:10:50;;;;;;;;;;;24.50;82.00;;;;;;5113451;28;19924;-79